sensor_id;sensor_type;location;lat;lon;timestamp;P1;durP1;ratioP1;P2;durP2;ratioP2
39518;SDS011;25200;53.394;10.414;2022-08-19T00:01:45;14.02;;;7.43;;
39518;SDS011;25200;53.394;10.414;2022-08-19T00:04:13;12.75;;;8.43;;
39518;SDS011;25200;53.394;10.414;2022-08-19T00:06:41;12.00;;;7.35;;
39518;SDS011;25200;53.394;10.414;2022-08-19T00:09:10;13.63;;;8.50;;
39518;SDS011;25200;53.394;10.414;2022-08-19T00:11:38;11.57;;;6.60;;
39518;SDS011;25200;53.394;10.414;2022-08-19T00:14:05;9.88;;;6.25;;
39518;SDS011;25200;53.394;10.414;2022-08-19T00:16:33;11.88;;;6.55;;
39518;SDS011;25200;53.394;10.414;2022-08-19T00:18:59;14.02;;;7.97;;
39518;SDS011;25200;53.394;10.414;2022-08-19T00:21:25;13.52;;;7.45;;
39518;SDS011;25200;53.394;10.414;2022-08-19T00:23:52;16.33;;;7.65;;
39518;SDS011;25200;53.394;10.414;2022-08-19T00:26:19;11.18;;;6.72;;
39518;SDS011;25200;53.394;10.414;2022-08-19T00:28:45;13.43;;;7.28;;
39518;SDS011;25200;53.394;10.414;2022-08-19T00:31:12;10.88;;;7.22;;
39518;SDS011;25200;53.394;10.414;2022-08-19T00:33:37;9.57;;;5.15;;
39518;SDS011;25200;53.394;10.414;2022-08-19T00:36:04;13.65;;;7.40;;
39518;SDS011;25200;53.394;10.414;2022-08-19T00:38:31;12.52;;;6.43;;
39518;SDS011;25200;53.394;10.414;2022-08-19T00:40:58;13.15;;;7.13;;
39518;SDS011;25200;53.394;10.414;2022-08-19T00:43:24;13.30;;;7.72;;
39518;SDS011;25200;53.394;10.414;2022-08-19T00:45:51;14.68;;;8.73;;
39518;SDS011;25200;53.394;10.414;2022-08-19T00:48:18;14.48;;;7.90;;
39518;SDS011;25200;53.394;10.414;2022-08-19T00:50:46;14.63;;;8.30;;
39518;SDS011;25200;53.394;10.414;2022-08-19T00:53:14;18.05;;;10.07;;
39518;SDS011;25200;53.394;10.414;2022-08-19T00:55:47;14.15;;;8.98;;
39518;SDS011;25200;53.394;10.414;2022-08-19T00:58:17;17.65;;;9.18;;
39518;SDS011;25200;53.394;10.414;2022-08-19T01:00:46;15.27;;;8.85;;
39518;SDS011;25200;53.394;10.414;2022-08-19T01:03:13;14.38;;;9.38;;
39518;SDS011;25200;53.394;10.414;2022-08-19T01:05:42;13.00;;;7.82;;
39518;SDS011;25200;53.394;10.414;2022-08-19T01:08:09;12.23;;;8.25;;
39518;SDS011;25200;53.394;10.414;2022-08-19T01:10:37;12.70;;;8.60;;
39518;SDS011;25200;53.394;10.414;2022-08-19T01:13:08;15.60;;;8.05;;
39518;SDS011;25200;53.394;10.414;2022-08-19T01:15:38;11.95;;;7.95;;
39518;SDS011;25200;53.394;10.414;2022-08-19T01:18:12;14.43;;;7.63;;
39518;SDS011;25200;53.394;10.414;2022-08-19T01:20:39;13.80;;;9.23;;
39518;SDS011;25200;53.394;10.414;2022-08-19T01:23:07;13.93;;;9.10;;
39518;SDS011;25200;53.394;10.414;2022-08-19T01:25:39;15.80;;;10.07;;
39518;SDS011;25200;53.394;10.414;2022-08-19T01:28:06;13.50;;;8.27;;
39518;SDS011;25200;53.394;10.414;2022-08-19T01:30:33;15.55;;;9.65;;
39518;SDS011;25200;53.394;10.414;2022-08-19T01:33:00;15.18;;;9.65;;
39518;SDS011;25200;53.394;10.414;2022-08-19T01:35:30;16.52;;;10.35;;
39518;SDS011;25200;53.394;10.414;2022-08-19T01:38:00;14.68;;;8.88;;
39518;SDS011;25200;53.394;10.414;2022-08-19T01:40:33;14.25;;;9.02;;
39518;SDS011;25200;53.394;10.414;2022-08-19T01:43:01;13.85;;;9.15;;
39518;SDS011;25200;53.394;10.414;2022-08-19T01:45:28;15.75;;;10.35;;
39518;SDS011;25200;53.394;10.414;2022-08-19T01:47:56;14.25;;;9.52;;
39518;SDS011;25200;53.394;10.414;2022-08-19T01:50:23;17.40;;;11.13;;
39518;SDS011;25200;53.394;10.414;2022-08-19T01:52:49;17.00;;;10.40;;
39518;SDS011;25200;53.394;10.414;2022-08-19T01:55:16;17.63;;;9.45;;
39518;SDS011;25200;53.394;10.414;2022-08-19T01:57:45;12.60;;;8.93;;
39518;SDS011;25200;53.394;10.414;2022-08-19T02:00:16;16.25;;;9.90;;
39518;SDS011;25200;53.394;10.414;2022-08-19T02:02:43;16.08;;;9.88;;
39518;SDS011;25200;53.394;10.414;2022-08-19T02:05:10;15.05;;;9.68;;
39518;SDS011;25200;53.394;10.414;2022-08-19T02:07:37;15.60;;;10.77;;
39518;SDS011;25200;53.394;10.414;2022-08-19T02:10:05;13.18;;;8.88;;
39518;SDS011;25200;53.394;10.414;2022-08-19T02:12:32;14.13;;;8.38;;
39518;SDS011;25200;53.394;10.414;2022-08-19T02:14:58;12.73;;;8.50;;
39518;SDS011;25200;53.394;10.414;2022-08-19T02:17:26;21.80;;;10.73;;
39518;SDS011;25200;53.394;10.414;2022-08-19T02:19:53;14.38;;;9.93;;
39518;SDS011;25200;53.394;10.414;2022-08-19T02:22:19;12.43;;;8.45;;
39518;SDS011;25200;53.394;10.414;2022-08-19T02:24:45;16.13;;;9.75;;
39518;SDS011;25200;53.394;10.414;2022-08-19T02:27:13;14.32;;;8.63;;
39518;SDS011;25200;53.394;10.414;2022-08-19T02:29:39;15.13;;;9.88;;
39518;SDS011;25200;53.394;10.414;2022-08-19T02:32:05;17.60;;;9.65;;
39518;SDS011;25200;53.394;10.414;2022-08-19T02:34:32;15.43;;;10.00;;
39518;SDS011;25200;53.394;10.414;2022-08-19T02:36:59;14.00;;;10.02;;
39518;SDS011;25200;53.394;10.414;2022-08-19T02:39:25;16.23;;;9.68;;
39518;SDS011;25200;53.394;10.414;2022-08-19T02:41:51;11.88;;;8.50;;
39518;SDS011;25200;53.394;10.414;2022-08-19T02:44:17;16.50;;;10.38;;
39518;SDS011;25200;53.394;10.414;2022-08-19T02:46:44;16.33;;;8.93;;
39518;SDS011;25200;53.394;10.414;2022-08-19T02:49:11;15.95;;;9.27;;
39518;SDS011;25200;53.394;10.414;2022-08-19T02:51:39;15.65;;;10.68;;
39518;SDS011;25200;53.394;10.414;2022-08-19T02:54:06;18.02;;;10.27;;
39518;SDS011;25200;53.394;10.414;2022-08-19T02:56:34;14.68;;;8.70;;
39518;SDS011;25200;53.394;10.414;2022-08-19T02:59:01;13.80;;;9.73;;
39518;SDS011;25200;53.394;10.414;2022-08-19T03:01:35;17.20;;;11.00;;
39518;SDS011;25200;53.394;10.414;2022-08-19T03:04:02;18.80;;;11.18;;
39518;SDS011;25200;53.394;10.414;2022-08-19T03:06:29;15.02;;;9.10;;
39518;SDS011;25200;53.394;10.414;2022-08-19T03:08:55;13.63;;;9.07;;
39518;SDS011;25200;53.394;10.414;2022-08-19T03:11:23;14.20;;;9.43;;
39518;SDS011;25200;53.394;10.414;2022-08-19T03:13:50;18.02;;;10.93;;
39518;SDS011;25200;53.394;10.414;2022-08-19T03:16:17;19.58;;;10.93;;
39518;SDS011;25200;53.394;10.414;2022-08-19T03:18:44;17.80;;;11.07;;
39518;SDS011;25200;53.394;10.414;2022-08-19T03:21:14;15.45;;;10.00;;
39518;SDS011;25200;53.394;10.414;2022-08-19T03:23:41;15.93;;;9.52;;
39518;SDS011;25200;53.394;10.414;2022-08-19T03:26:07;20.20;;;11.30;;
39518;SDS011;25200;53.394;10.414;2022-08-19T03:28:33;20.20;;;12.40;;
39518;SDS011;25200;53.394;10.414;2022-08-19T03:31:03;17.38;;;9.80;;
39518;SDS011;25200;53.394;10.414;2022-08-19T03:33:32;15.23;;;10.10;;
39518;SDS011;25200;53.394;10.414;2022-08-19T03:36:08;14.80;;;9.70;;
39518;SDS011;25200;53.394;10.414;2022-08-19T03:38:37;16.80;;;9.45;;
39518;SDS011;25200;53.394;10.414;2022-08-19T03:41:06;15.23;;;9.82;;
39518;SDS011;25200;53.394;10.414;2022-08-19T03:43:37;15.45;;;9.85;;
39518;SDS011;25200;53.394;10.414;2022-08-19T03:46:06;18.45;;;10.70;;
39518;SDS011;25200;53.394;10.414;2022-08-19T03:48:34;17.90;;;10.10;;
39518;SDS011;25200;53.394;10.414;2022-08-19T03:51:01;15.48;;;8.82;;
39518;SDS011;25200;53.394;10.414;2022-08-19T03:53:28;15.23;;;8.40;;
39518;SDS011;25200;53.394;10.414;2022-08-19T03:55:56;20.70;;;12.63;;
39518;SDS011;25200;53.394;10.414;2022-08-19T03:58:25;21.15;;;13.55;;
39518;SDS011;25200;53.394;10.414;2022-08-19T04:00:53;20.08;;;11.23;;
39518;SDS011;25200;53.394;10.414;2022-08-19T04:03:22;20.50;;;11.75;;
39518;SDS011;25200;53.394;10.414;2022-08-19T04:05:49;16.15;;;10.98;;
39518;SDS011;25200;53.394;10.414;2022-08-19T04:08:15;17.05;;;10.15;;
39518;SDS011;25200;53.394;10.414;2022-08-19T04:10:43;15.18;;;9.27;;
39518;SDS011;25200;53.394;10.414;2022-08-19T04:13:09;19.42;;;13.23;;
39518;SDS011;25200;53.394;10.414;2022-08-19T04:15:39;17.05;;;10.93;;
39518;SDS011;25200;53.394;10.414;2022-08-19T04:18:07;20.00;;;10.25;;
39518;SDS011;25200;53.394;10.414;2022-08-19T04:20:39;25.15;;;14.48;;
39518;SDS011;25200;53.394;10.414;2022-08-19T04:23:06;19.27;;;11.90;;
39518;SDS011;25200;53.394;10.414;2022-08-19T04:25:39;22.48;;;13.15;;
39518;SDS011;25200;53.394;10.414;2022-08-19T04:28:09;23.67;;;14.50;;
39518;SDS011;25200;53.394;10.414;2022-08-19T04:30:47;18.58;;;12.82;;
39518;SDS011;25200;53.394;10.414;2022-08-19T04:33:15;20.88;;;12.77;;
39518;SDS011;25200;53.394;10.414;2022-08-19T04:35:44;24.13;;;14.07;;
39518;SDS011;25200;53.394;10.414;2022-08-19T04:38:14;19.65;;;11.80;;
39518;SDS011;25200;53.394;10.414;2022-08-19T04:40:45;16.10;;;10.55;;
39518;SDS011;25200;53.394;10.414;2022-08-19T04:43:31;19.58;;;11.55;;
39518;SDS011;25200;53.394;10.414;2022-08-19T04:45:58;22.20;;;11.60;;
39518;SDS011;25200;53.394;10.414;2022-08-19T04:48:29;17.85;;;11.30;;
39518;SDS011;25200;53.394;10.414;2022-08-19T04:50:56;22.98;;;11.38;;
39518;SDS011;25200;53.394;10.414;2022-08-19T04:53:26;24.83;;;11.70;;
39518;SDS011;25200;53.394;10.414;2022-08-19T04:55:57;16.70;;;11.35;;
39518;SDS011;25200;53.394;10.414;2022-08-19T04:58:26;21.17;;;12.02;;
39518;SDS011;25200;53.394;10.414;2022-08-19T05:00:52;17.90;;;11.23;;
39518;SDS011;25200;53.394;10.414;2022-08-19T05:03:19;19.75;;;11.90;;
39518;SDS011;25200;53.394;10.414;2022-08-19T05:05:46;21.80;;;11.98;;
39518;SDS011;25200;53.394;10.414;2022-08-19T05:08:17;18.25;;;11.93;;
39518;SDS011;25200;53.394;10.414;2022-08-19T05:10:47;17.55;;;11.68;;
39518;SDS011;25200;53.394;10.414;2022-08-19T05:13:15;18.83;;;10.95;;
39518;SDS011;25200;53.394;10.414;2022-08-19T05:15:42;21.05;;;12.65;;
39518;SDS011;25200;53.394;10.414;2022-08-19T05:18:08;19.88;;;11.60;;
39518;SDS011;25200;53.394;10.414;2022-08-19T05:20:52;22.50;;;11.27;;
39518;SDS011;25200;53.394;10.414;2022-08-19T05:23:37;25.88;;;12.50;;
39518;SDS011;25200;53.394;10.414;2022-08-19T05:26:03;24.67;;;12.57;;
39518;SDS011;25200;53.394;10.414;2022-08-19T05:28:29;16.88;;;10.15;;
39518;SDS011;25200;53.394;10.414;2022-08-19T05:30:55;18.42;;;10.00;;
39518;SDS011;25200;53.394;10.414;2022-08-19T05:33:22;21.92;;;10.18;;
39518;SDS011;25200;53.394;10.414;2022-08-19T05:35:49;23.75;;;11.57;;
39518;SDS011;25200;53.394;10.414;2022-08-19T05:38:18;19.73;;;11.50;;
39518;SDS011;25200;53.394;10.414;2022-08-19T05:40:44;18.67;;;10.13;;
39518;SDS011;25200;53.394;10.414;2022-08-19T05:43:13;18.27;;;11.43;;
39518;SDS011;25200;53.394;10.414;2022-08-19T05:45:41;19.13;;;11.35;;
39518;SDS011;25200;53.394;10.414;2022-08-19T05:48:08;19.65;;;10.30;;
39518;SDS011;25200;53.394;10.414;2022-08-19T05:50:37;15.15;;;9.73;;
39518;SDS011;25200;53.394;10.414;2022-08-19T05:53:05;23.98;;;13.70;;
39518;SDS011;25200;53.394;10.414;2022-08-19T05:55:31;19.35;;;11.13;;
39518;SDS011;25200;53.394;10.414;2022-08-19T05:57:57;17.27;;;10.02;;
39518;SDS011;25200;53.394;10.414;2022-08-19T06:00:23;18.20;;;9.90;;
39518;SDS011;25200;53.394;10.414;2022-08-19T06:02:49;21.13;;;11.65;;
39518;SDS011;25200;53.394;10.414;2022-08-19T06:05:16;22.98;;;12.13;;
39518;SDS011;25200;53.394;10.414;2022-08-19T06:07:41;22.80;;;12.05;;
39518;SDS011;25200;53.394;10.414;2022-08-19T06:10:08;16.25;;;10.23;;
39518;SDS011;25200;53.394;10.414;2022-08-19T06:12:35;19.05;;;10.60;;
39518;SDS011;25200;53.394;10.414;2022-08-19T06:15:05;24.80;;;11.10;;
39518;SDS011;25200;53.394;10.414;2022-08-19T06:17:33;20.80;;;12.32;;
39518;SDS011;25200;53.394;10.414;2022-08-19T06:20:00;18.58;;;10.32;;
39518;SDS011;25200;53.394;10.414;2022-08-19T06:22:26;24.77;;;13.02;;
39518;SDS011;25200;53.394;10.414;2022-08-19T06:24:53;18.85;;;11.40;;
39518;SDS011;25200;53.394;10.414;2022-08-19T06:27:20;20.63;;;12.18;;
39518;SDS011;25200;53.394;10.414;2022-08-19T06:29:46;22.30;;;12.02;;
39518;SDS011;25200;53.394;10.414;2022-08-19T06:32:13;20.08;;;10.65;;
39518;SDS011;25200;53.394;10.414;2022-08-19T06:34:41;19.55;;;10.75;;
39518;SDS011;25200;53.394;10.414;2022-08-19T06:37:07;19.42;;;11.23;;
39518;SDS011;25200;53.394;10.414;2022-08-19T06:39:37;19.10;;;11.65;;
39518;SDS011;25200;53.394;10.414;2022-08-19T06:42:05;22.38;;;12.07;;
39518;SDS011;25200;53.394;10.414;2022-08-19T06:44:34;18.83;;;11.70;;
39518;SDS011;25200;53.394;10.414;2022-08-19T06:47:05;21.95;;;11.93;;
39518;SDS011;25200;53.394;10.414;2022-08-19T06:49:31;25.70;;;12.93;;
39518;SDS011;25200;53.394;10.414;2022-08-19T06:51:57;24.10;;;12.10;;
39518;SDS011;25200;53.394;10.414;2022-08-19T06:54:24;25.17;;;13.52;;
39518;SDS011;25200;53.394;10.414;2022-08-19T06:56:50;28.73;;;14.55;;
39518;SDS011;25200;53.394;10.414;2022-08-19T06:59:17;27.20;;;12.35;;
39518;SDS011;25200;53.394;10.414;2022-08-19T07:01:49;23.48;;;11.55;;
39518;SDS011;25200;53.394;10.414;2022-08-19T07:04:20;23.98;;;13.32;;
39518;SDS011;25200;53.394;10.414;2022-08-19T07:06:48;25.67;;;11.93;;
39518;SDS011;25200;53.394;10.414;2022-08-19T07:09:16;22.30;;;12.98;;
39518;SDS011;25200;53.394;10.414;2022-08-19T07:11:43;23.33;;;12.85;;
39518;SDS011;25200;53.394;10.414;2022-08-19T07:14:11;22.20;;;12.65;;
39518;SDS011;25200;53.394;10.414;2022-08-19T07:16:38;23.33;;;12.13;;
39518;SDS011;25200;53.394;10.414;2022-08-19T07:19:04;18.00;;;11.73;;
39518;SDS011;25200;53.394;10.414;2022-08-19T07:21:29;25.30;;;12.23;;
39518;SDS011;25200;53.394;10.414;2022-08-19T07:23:56;30.35;;;15.38;;
39518;SDS011;25200;53.394;10.414;2022-08-19T07:26:25;27.10;;;15.18;;
39518;SDS011;25200;53.394;10.414;2022-08-19T07:28:53;33.35;;;16.60;;
39518;SDS011;25200;53.394;10.414;2022-08-19T07:31:21;26.98;;;14.93;;
39518;SDS011;25200;53.394;10.414;2022-08-19T07:33:49;23.85;;;15.13;;
39518;SDS011;25200;53.394;10.414;2022-08-19T07:36:18;28.45;;;15.75;;
39518;SDS011;25200;53.394;10.414;2022-08-19T07:38:46;27.77;;;14.15;;
39518;SDS011;25200;53.394;10.414;2022-08-19T07:41:14;26.25;;;13.27;;
39518;SDS011;25200;53.394;10.414;2022-08-19T07:43:45;25.25;;;14.60;;
39518;SDS011;25200;53.394;10.414;2022-08-19T07:46:12;27.88;;;14.82;;
39518;SDS011;25200;53.394;10.414;2022-08-19T07:48:39;28.23;;;15.02;;
39518;SDS011;25200;53.394;10.414;2022-08-19T07:51:13;27.92;;;15.27;;
39518;SDS011;25200;53.394;10.414;2022-08-19T07:53:40;22.90;;;14.20;;
39518;SDS011;25200;53.394;10.414;2022-08-19T07:56:08;29.85;;;15.45;;
39518;SDS011;25200;53.394;10.414;2022-08-19T07:58:36;23.60;;;13.70;;
39518;SDS011;25200;53.394;10.414;2022-08-19T08:01:04;23.27;;;12.77;;
39518;SDS011;25200;53.394;10.414;2022-08-19T08:03:31;21.25;;;12.73;;
39518;SDS011;25200;53.394;10.414;2022-08-19T08:06:16;24.27;;;14.45;;
39518;SDS011;25200;53.394;10.414;2022-08-19T08:09:02;26.13;;;13.57;;
39518;SDS011;25200;53.394;10.414;2022-08-19T08:11:56;25.58;;;14.45;;
39518;SDS011;25200;53.394;10.414;2022-08-19T08:14:29;24.92;;;15.15;;
39518;SDS011;25200;53.394;10.414;2022-08-19T08:16:57;30.02;;;16.65;;
39518;SDS011;25200;53.394;10.414;2022-08-19T08:19:25;28.58;;;14.73;;
39518;SDS011;25200;53.394;10.414;2022-08-19T08:21:53;30.40;;;14.82;;
39518;SDS011;25200;53.394;10.414;2022-08-19T08:24:20;28.23;;;16.35;;
39518;SDS011;25200;53.394;10.414;2022-08-19T08:26:46;26.73;;;15.65;;
39518;SDS011;25200;53.394;10.414;2022-08-19T08:29:12;29.15;;;15.60;;
39518;SDS011;25200;53.394;10.414;2022-08-19T08:31:43;29.98;;;16.40;;
39518;SDS011;25200;53.394;10.414;2022-08-19T08:34:10;37.25;;;15.32;;
39518;SDS011;25200;53.394;10.414;2022-08-19T08:36:38;45.78;;;17.05;;
39518;SDS011;25200;53.394;10.414;2022-08-19T08:39:10;27.38;;;15.70;;
39518;SDS011;25200;53.394;10.414;2022-08-19T08:41:44;35.67;;;15.90;;
39518;SDS011;25200;53.394;10.414;2022-08-19T08:47:02;29.25;;;15.77;;
39518;SDS011;25200;53.394;10.414;2022-08-19T08:49:53;30.40;;;16.80;;
39518;SDS011;25200;53.394;10.414;2022-08-19T08:52:24;33.78;;;18.20;;
39518;SDS011;25200;53.394;10.414;2022-08-19T08:54:57;92.32;;;22.73;;
39518;SDS011;25200;53.394;10.414;2022-08-19T09:00:18;32.92;;;17.50;;
39518;SDS011;25200;53.394;10.414;2022-08-19T09:02:50;35.25;;;18.23;;
39518;SDS011;25200;53.394;10.414;2022-08-19T09:05:16;33.13;;;16.80;;
39518;SDS011;25200;53.394;10.414;2022-08-19T09:07:49;37.45;;;19.50;;
39518;SDS011;25200;53.394;10.414;2022-08-19T09:15:29;31.10;;;16.65;;
39518;SDS011;25200;53.394;10.414;2022-08-19T09:18:01;30.27;;;17.23;;
39518;SDS011;25200;53.394;10.414;2022-08-19T09:20:28;32.97;;;17.13;;
39518;SDS011;25200;53.394;10.414;2022-08-19T09:22:56;34.75;;;18.65;;
39518;SDS011;25200;53.394;10.414;2022-08-19T09:25:22;33.97;;;17.40;;
39518;SDS011;25200;53.394;10.414;2022-08-19T09:27:49;30.20;;;17.60;;
39518;SDS011;25200;53.394;10.414;2022-08-19T09:30:18;34.70;;;17.50;;
39518;SDS011;25200;53.394;10.414;2022-08-19T09:32:47;32.83;;;18.05;;
39518;SDS011;25200;53.394;10.414;2022-08-19T09:35:14;27.95;;;16.92;;
39518;SDS011;25200;53.394;10.414;2022-08-19T09:37:40;30.27;;;16.73;;
39518;SDS011;25200;53.394;10.414;2022-08-19T09:40:06;26.25;;;15.18;;
39518;SDS011;25200;53.394;10.414;2022-08-19T09:42:33;24.52;;;14.77;;
39518;SDS011;25200;53.394;10.414;2022-08-19T09:44:59;23.52;;;13.77;;
39518;SDS011;25200;53.394;10.414;2022-08-19T09:47:24;22.33;;;12.45;;
39518;SDS011;25200;53.394;10.414;2022-08-19T09:49:50;19.63;;;12.63;;
39518;SDS011;25200;53.394;10.414;2022-08-19T09:52:16;18.20;;;11.70;;
39518;SDS011;25200;53.394;10.414;2022-08-19T09:54:43;21.25;;;11.20;;
39518;SDS011;25200;53.394;10.414;2022-08-19T09:57:08;22.63;;;12.00;;
39518;SDS011;25200;53.394;10.414;2022-08-19T09:59:34;22.25;;;11.68;;
39518;SDS011;25200;53.394;10.414;2022-08-19T10:02:00;21.10;;;12.13;;
39518;SDS011;25200;53.394;10.414;2022-08-19T10:04:26;17.27;;;10.88;;
39518;SDS011;25200;53.394;10.414;2022-08-19T10:07:12;23.42;;;12.75;;
39518;SDS011;25200;53.394;10.414;2022-08-19T10:09:38;17.38;;;10.45;;
39518;SDS011;25200;53.394;10.414;2022-08-19T10:12:05;19.25;;;11.35;;
39518;SDS011;25200;53.394;10.414;2022-08-19T10:14:33;18.45;;;11.15;;
39518;SDS011;25200;53.394;10.414;2022-08-19T10:16:59;18.42;;;10.93;;
39518;SDS011;25200;53.394;10.414;2022-08-19T10:19:27;24.38;;;12.30;;
39518;SDS011;25200;53.394;10.414;2022-08-19T10:22:02;23.95;;;12.02;;
39518;SDS011;25200;53.394;10.414;2022-08-19T10:24:29;21.00;;;12.40;;
39518;SDS011;25200;53.394;10.414;2022-08-19T10:26:56;18.88;;;11.20;;
39518;SDS011;25200;53.394;10.414;2022-08-19T10:29:23;24.38;;;12.20;;
39518;SDS011;25200;53.394;10.414;2022-08-19T10:31:48;23.35;;;12.88;;
39518;SDS011;25200;53.394;10.414;2022-08-19T10:34:14;25.00;;;13.82;;
39518;SDS011;25200;53.394;10.414;2022-08-19T10:36:39;33.92;;;15.15;;
39518;SDS011;25200;53.394;10.414;2022-08-19T10:39:07;33.17;;;16.73;;
39518;SDS011;25200;53.394;10.414;2022-08-19T10:41:35;23.63;;;13.60;;
39518;SDS011;25200;53.394;10.414;2022-08-19T10:44:04;29.02;;;16.42;;
39518;SDS011;25200;53.394;10.414;2022-08-19T10:46:32;27.45;;;15.73;;
39518;SDS011;25200;53.394;10.414;2022-08-19T10:49:02;25.02;;;14.57;;
39518;SDS011;25200;53.394;10.414;2022-08-19T10:51:30;31.65;;;16.48;;
39518;SDS011;25200;53.394;10.414;2022-08-19T10:54:14;38.55;;;17.02;;
39518;SDS011;25200;53.394;10.414;2022-08-19T10:56:40;32.10;;;15.63;;
39518;SDS011;25200;53.394;10.414;2022-08-19T11:01:45;27.55;;;15.73;;
39518;SDS011;25200;53.394;10.414;2022-08-19T11:04:12;24.70;;;13.52;;
39518;SDS011;25200;53.394;10.414;2022-08-19T11:06:40;32.35;;;16.23;;
39518;SDS011;25200;53.394;10.414;2022-08-19T11:09:08;31.65;;;15.50;;
39518;SDS011;25200;53.394;10.414;2022-08-19T11:11:35;29.15;;;14.80;;
39518;SDS011;25200;53.394;10.414;2022-08-19T11:14:05;26.98;;;15.02;;
39518;SDS011;25200;53.394;10.414;2022-08-19T11:16:39;28.37;;;15.43;;
39518;SDS011;25200;53.394;10.414;2022-08-19T11:19:06;28.17;;;15.82;;
39518;SDS011;25200;53.394;10.414;2022-08-19T11:21:34;32.47;;;15.90;;
39518;SDS011;25200;53.394;10.414;2022-08-19T11:24:24;26.58;;;13.85;;
39518;SDS011;25200;53.394;10.414;2022-08-19T11:26:50;27.77;;;15.25;;
39518;SDS011;25200;53.394;10.414;2022-08-19T11:29:22;34.90;;;16.65;;
39518;SDS011;25200;53.394;10.414;2022-08-19T11:31:52;27.02;;;15.20;;
39518;SDS011;25200;53.394;10.414;2022-08-19T11:34:19;30.65;;;16.13;;
39518;SDS011;25200;53.394;10.414;2022-08-19T11:36:47;30.08;;;15.70;;
39518;SDS011;25200;53.394;10.414;2022-08-19T11:39:15;30.10;;;15.93;;
39518;SDS011;25200;53.394;10.414;2022-08-19T11:41:44;28.92;;;15.10;;
39518;SDS011;25200;53.394;10.414;2022-08-19T11:44:10;26.95;;;15.13;;
39518;SDS011;25200;53.394;10.414;2022-08-19T11:46:36;29.08;;;16.10;;
39518;SDS011;25200;53.394;10.414;2022-08-19T11:49:04;27.77;;;15.10;;
39518;SDS011;25200;53.394;10.414;2022-08-19T11:51:32;27.13;;;14.90;;
39518;SDS011;25200;53.394;10.414;2022-08-19T11:53:59;26.25;;;13.98;;
39518;SDS011;25200;53.394;10.414;2022-08-19T11:56:26;28.75;;;14.90;;
39518;SDS011;25200;53.394;10.414;2022-08-19T11:58:52;27.73;;;13.82;;
39518;SDS011;25200;53.394;10.414;2022-08-19T12:01:20;32.30;;;15.85;;
39518;SDS011;25200;53.394;10.414;2022-08-19T12:03:48;27.48;;;14.73;;
39518;SDS011;25200;53.394;10.414;2022-08-19T12:06:17;29.85;;;14.48;;
39518;SDS011;25200;53.394;10.414;2022-08-19T12:08:48;28.08;;;15.52;;
39518;SDS011;25200;53.394;10.414;2022-08-19T12:11:13;32.63;;;16.15;;
39518;SDS011;25200;53.394;10.414;2022-08-19T12:13:39;29.73;;;14.70;;
39518;SDS011;25200;53.394;10.414;2022-08-19T12:16:07;33.13;;;16.50;;
39518;SDS011;25200;53.394;10.414;2022-08-19T12:18:38;28.17;;;16.15;;
39518;SDS011;25200;53.394;10.414;2022-08-19T12:21:07;26.02;;;13.77;;
39518;SDS011;25200;53.394;10.414;2022-08-19T12:23:35;24.77;;;14.45;;
39518;SDS011;25200;53.394;10.414;2022-08-19T12:26:02;27.98;;;15.32;;
39518;SDS011;25200;53.394;10.414;2022-08-19T12:28:28;27.70;;;14.85;;
39518;SDS011;25200;53.394;10.414;2022-08-19T12:30:55;27.20;;;14.45;;
39518;SDS011;25200;53.394;10.414;2022-08-19T12:33:21;25.77;;;15.05;;
39518;SDS011;25200;53.394;10.414;2022-08-19T12:35:50;30.77;;;15.85;;
39518;SDS011;25200;53.394;10.414;2022-08-19T12:38:16;27.58;;;14.95;;
39518;SDS011;25200;53.394;10.414;2022-08-19T12:40:44;23.83;;;14.18;;
39518;SDS011;25200;53.394;10.414;2022-08-19T12:43:11;29.17;;;15.25;;
39518;SDS011;25200;53.394;10.414;2022-08-19T12:45:38;24.75;;;14.50;;
39518;SDS011;25200;53.394;10.414;2022-08-19T12:48:04;26.35;;;14.13;;
39518;SDS011;25200;53.394;10.414;2022-08-19T12:50:30;28.70;;;15.27;;
39518;SDS011;25200;53.394;10.414;2022-08-19T12:52:56;26.90;;;14.25;;
39518;SDS011;25200;53.394;10.414;2022-08-19T12:55:23;24.08;;;13.80;;
39518;SDS011;25200;53.394;10.414;2022-08-19T12:57:49;27.00;;;13.73;;
39518;SDS011;25200;53.394;10.414;2022-08-19T13:00:16;27.77;;;14.63;;
39518;SDS011;25200;53.394;10.414;2022-08-19T13:02:46;21.73;;;12.30;;
39518;SDS011;25200;53.394;10.414;2022-08-19T13:05:15;29.52;;;13.50;;
39518;SDS011;25200;53.394;10.414;2022-08-19T13:07:44;23.45;;;14.45;;
39518;SDS011;25200;53.394;10.414;2022-08-19T13:10:11;22.35;;;13.93;;
39518;SDS011;25200;53.394;10.414;2022-08-19T13:12:40;22.25;;;14.52;;
39518;SDS011;25200;53.394;10.414;2022-08-19T13:15:07;25.25;;;14.10;;
39518;SDS011;25200;53.394;10.414;2022-08-19T13:17:33;24.77;;;13.93;;
39518;SDS011;25200;53.394;10.414;2022-08-19T13:19:59;26.92;;;15.25;;
39518;SDS011;25200;53.394;10.414;2022-08-19T13:22:25;21.60;;;12.35;;
39518;SDS011;25200;53.394;10.414;2022-08-19T13:24:52;21.50;;;12.48;;
39518;SDS011;25200;53.394;10.414;2022-08-19T13:27:17;24.25;;;13.98;;
39518;SDS011;25200;53.394;10.414;2022-08-19T13:29:43;20.77;;;13.63;;
39518;SDS011;25200;53.394;10.414;2022-08-19T13:32:28;25.55;;;14.77;;
39518;SDS011;25200;53.394;10.414;2022-08-19T13:35:13;29.13;;;13.98;;
39518;SDS011;25200;53.394;10.414;2022-08-19T13:37:40;24.17;;;13.50;;
39518;SDS011;25200;53.394;10.414;2022-08-19T13:40:16;24.42;;;13.15;;
39518;SDS011;25200;53.394;10.414;2022-08-19T13:42:45;21.00;;;12.15;;
39518;SDS011;25200;53.394;10.414;2022-08-19T13:45:13;21.88;;;13.75;;
39518;SDS011;25200;53.394;10.414;2022-08-19T13:47:45;21.40;;;11.98;;
39518;SDS011;25200;53.394;10.414;2022-08-19T13:50:14;18.17;;;12.02;;
39518;SDS011;25200;53.394;10.414;2022-08-19T13:52:42;24.50;;;12.93;;
39518;SDS011;25200;53.394;10.414;2022-08-19T13:55:09;16.60;;;11.02;;
39518;SDS011;25200;53.394;10.414;2022-08-19T13:57:36;21.60;;;11.70;;
39518;SDS011;25200;53.394;10.414;2022-08-19T14:00:12;20.40;;;11.38;;
39518;SDS011;25200;53.394;10.414;2022-08-19T14:02:42;16.95;;;11.30;;
39518;SDS011;25200;53.394;10.414;2022-08-19T14:05:09;19.17;;;12.38;;
39518;SDS011;25200;53.394;10.414;2022-08-19T14:07:37;17.63;;;11.40;;
39518;SDS011;25200;53.394;10.414;2022-08-19T14:10:04;17.17;;;11.43;;
39518;SDS011;25200;53.394;10.414;2022-08-19T14:12:32;17.15;;;11.05;;
39518;SDS011;25200;53.394;10.414;2022-08-19T14:14:58;16.65;;;9.50;;
39518;SDS011;25200;53.394;10.414;2022-08-19T14:17:24;17.90;;;9.98;;
39518;SDS011;25200;53.394;10.414;2022-08-19T14:19:55;18.50;;;11.13;;
39518;SDS011;25200;53.394;10.414;2022-08-19T14:22:31;16.55;;;11.00;;
39518;SDS011;25200;53.394;10.414;2022-08-19T14:24:57;17.30;;;10.25;;
39518;SDS011;25200;53.394;10.414;2022-08-19T14:27:23;17.95;;;10.57;;
39518;SDS011;25200;53.394;10.414;2022-08-19T14:29:51;18.20;;;11.13;;
39518;SDS011;25200;53.394;10.414;2022-08-19T14:32:17;15.98;;;12.02;;